Puerto Vallarta, Mexico

2:04 AM CDT on October 24, 2014 (GMT -0500)
Lic Gustavo Diaz Ordaz International | Change Station
CLOSE
Current Station
Airport
Location: Puerto Vallarta,
Elevation: 20 ft
Nearby Weather Stations

Elev 20 ft 20.68 °N, 105.25 °W | Updated 18 minutes ago

Mostly Cloudy
Mostly Cloudy
79 °F
Feels Like 79 °F
N
7
Wind Variable Wind from NNE

Today
High -- | Low -- °F
--% Chance of Precip.
Yesterday
High -- | Low -- °F
Precip. -- in
7:59 AM 7:30 PM
New Moon, 0% visible
Pressure 29.89 in
Visibility 10.0 miles
Clouds Scattered Clouds 1500 ft
Mostly Cloudy 25000 ft
Dew Point 75 °F
Humidity 89%
Rainfall 0.00 in
Snow Depth Not available.
UV 0 out of 12
Pollen Not available.
Air Quality Not available.
Flu Activity Not available.
METAR MMPR 240646Z 03006KT 10SM SCT015 BKN250 26/24 A2989 RMK 8/508

More Conditions Fewer Conditions

Pressure 29.89 in
Visibility 10.0 miles
Clouds Scattered Clouds 1500 ft
Mostly Cloudy 25000 ft
Dew Point 75 °F
Humidity 89%
Rainfall 0.00 in
Snow Depth Not available.
UV 0 out of 12
Pollen Not available.
Air Quality Not available.
Flu Activity Not available.
METAR MMPR 240646Z 03006KT 10SM SCT015 BKN250 26/24 A2989 RMK 8/508

More Conditions Fewer Conditions

10-Day Weather Forecast

Almanac

Astronomy

Oct. 24, 2014 Rise Set
Actual Time 7:59 AM CDT 7:30 PM CDT
Civil Twilight 7:37 AM CDT 7:52 PM CDT
Nautical Twilight 7:11 AM CDT 8:18 PM CDT
Astronomical Twilight 6:45 AM CDT 8:44 PM CDT
Moon 8:37 AM CDT 8:18 PM CDT
Length of Visible Light 12h 15m
Length of Day
11h 30m
Tomorrow will be 1m 5s shorter.
New Moon, 0% of the Moon is Illuminated
Today
New Moon
Oct 30
First Quarter
Nov 6
Full
Nov 14
Last Quarter
Nov 22
New

Yesterday's Extremes

Country Highs Country Lows

Community

WunderPhotos

Upload Photos

1,764,510 photos uploaded!

WunderBlogs® & News

Nearby

Snow Depth

Not available.

Earthquake Activity

City Distance Mag. Time & Date
No recent earthquake activity has been reported nearby.
Minimum magnitude displayed is 2.5.

Coastal Water Temperatures

Place Temperature
No Stations Reporting

Nearby Weather Stations